createdAt,value
2018-02-17T00:02:23.492Z,60.33
2018-02-17T00:04:51.035Z,61.37
2018-02-17T00:07:18.600Z,61.22
2018-02-17T00:09:46.196Z,60.15
2018-02-17T00:12:13.750Z,59.19
2018-02-17T00:14:41.344Z,58.29
2018-02-17T00:17:08.898Z,58.07
2018-02-17T00:19:36.434Z,57.58
2018-02-17T00:22:04.029Z,57.56
2018-02-17T00:24:31.636Z,57.76
2018-02-17T00:26:59.750Z,57.23
2018-02-17T00:29:27.331Z,56.90
2018-02-17T00:31:54.907Z,56.25
2018-02-17T00:34:22.447Z,55.95
2018-02-17T00:36:50.470Z,55.89
2018-02-17T00:39:18.043Z,55.90
2018-02-17T00:41:45.642Z,56.02
2018-02-17T00:44:13.200Z,55.91
2018-02-17T00:46:40.792Z,55.81
2018-02-17T00:49:08.397Z,55.40
2018-02-17T00:51:35.952Z,55.62
2018-02-17T00:54:03.939Z,55.87
2018-02-17T00:56:31.544Z,55.79
2018-02-17T00:58:59.095Z,55.90
2018-02-17T01:01:26.649Z,55.53
2018-02-17T01:03:54.252Z,55.17
2018-02-17T01:06:21.791Z,54.84
2018-02-17T01:08:49.339Z,54.83
2018-02-17T01:11:16.921Z,55.08
2018-02-17T01:13:44.483Z,56.24
2018-02-17T01:16:12.085Z,57.57
2018-02-17T01:18:39.634Z,56.92
2018-02-17T01:21:07.228Z,56.28
2018-02-17T01:23:34.766Z,55.81
2018-02-17T01:26:02.560Z,55.80
2018-02-17T01:28:30.121Z,55.13
2018-02-17T01:30:57.678Z,55.03
2018-02-17T01:33:25.280Z,54.80
2018-02-17T01:35:53.005Z,54.49
2018-02-17T01:38:20.552Z,54.35
2018-02-17T01:40:48.142Z,54.00
2018-02-17T01:43:16.121Z,53.81
2018-02-17T01:45:43.695Z,53.72
2018-02-17T01:48:11.243Z,53.57
2018-02-17T01:50:39.166Z,53.58
2018-02-17T01:53:06.734Z,53.27
2018-02-17T01:55:34.337Z,53.74
2018-02-17T01:58:01.894Z,53.63
2018-02-17T02:00:29.437Z,54.50
2018-02-17T02:02:57.043Z,55.31
2018-02-17T02:05:24.589Z,56.52
2018-02-17T02:07:52.182Z,57.71
2018-02-17T02:10:20.045Z,57.48
2018-02-17T02:12:47.615Z,56.83
2018-02-17T02:15:15.211Z,56.07
2018-02-17T02:17:42.755Z,55.82
2018-02-17T02:20:10.928Z,55.71
2018-02-17T02:22:38.535Z,55.50
2018-02-17T02:25:06.520Z,55.02
2018-02-17T02:27:34.223Z,55.04
2018-02-17T02:30:01.819Z,54.73
2018-02-17T02:32:29.368Z,54.38
2018-02-17T02:34:56.913Z,54.17
2018-02-17T02:37:24.503Z,54.81
2018-02-17T02:39:52.092Z,55.36
2018-02-17T02:42:19.649Z,55.34
2018-02-17T02:44:47.256Z,55.02
2018-02-17T02:47:14.791Z,55.88
2018-02-17T02:49:42.748Z,56.12
2018-02-17T02:52:10.334Z,56.18
2018-02-17T02:54:37.884Z,56.80
2018-02-17T02:57:05.476Z,56.51
2018-02-17T02:59:33.628Z,56.12
2018-02-17T03:02:01.206Z,59.02
2018-02-17T03:04:28.800Z,62.63
2018-02-17T03:06:56.681Z,64.84
2018-02-17T03:09:24.265Z,66.50
2018-02-17T03:11:51.861Z,67.10
2018-02-17T03:14:19.412Z,67.27
2018-02-17T03:16:46.950Z,67.33
2018-02-17T03:19:14.518Z,66.97
2018-02-17T03:21:42.102Z,67.32
2018-02-17T03:24:10.088Z,68.80
2018-02-17T03:26:37.670Z,70.17
2018-02-17T03:29:05.720Z,69.81
2018-02-17T03:31:33.289Z,69.11
2018-02-17T03:34:00.887Z,68.64
2018-02-17T03:36:29.165Z,68.52
2018-02-17T03:38:57.060Z,67.82
2018-02-17T03:41:24.601Z,68.81
2018-02-17T03:43:52.182Z,69.97
2018-02-17T03:46:19.778Z,69.67
2018-02-17T03:48:47.322Z,68.19
2018-02-17T03:51:14.861Z,67.72
2018-02-17T03:53:42.596Z,65.84
2018-02-17T03:56:10.173Z,63.98
2018-02-17T03:58:37.713Z,62.94
2018-02-17T04:01:05.294Z,61.62
2018-02-17T04:03:32.878Z,60.20
2018-02-17T04:06:01.234Z,60.42
2018-02-17T04:08:28.839Z,59.95
2018-02-17T04:10:56.402Z,60.10
2018-02-17T04:13:23.982Z,61.19
2018-02-17T04:15:51.558Z,60.31
2018-02-17T04:18:19.154Z,61.91
2018-02-17T04:20:46.749Z,61.80
2018-02-17T04:23:14.298Z,60.89
2018-02-17T04:25:42.166Z,59.93
2018-02-17T04:28:10.061Z,58.87
2018-02-17T04:30:37.613Z,57.89
2018-02-17T04:33:05.462Z,57.84
2018-02-17T04:35:33.006Z,58.68
2018-02-17T04:38:00.568Z,58.74
2018-02-17T04:43:48.530Z,62.17
2018-02-17T04:46:21.553Z,60.51
2018-02-17T04:48:53.620Z,58.52
2018-02-17T04:54:42.955Z,58.03
2018-02-17T05:00:16.381Z,57.37
2018-02-17T05:02:46.784Z,57.44
2018-02-17T05:05:14.394Z,58.28
2018-02-17T05:07:41.970Z,58.51
2018-02-17T05:10:09.587Z,60.71
2018-02-17T05:12:37.184Z,61.43
2018-02-17T05:15:21.546Z,60.52
2018-02-17T05:17:52.140Z,59.98
2018-02-17T05:20:20.464Z,59.35
2018-02-17T05:22:48.091Z,59.35
2018-02-17T05:25:27.033Z,59.03
2018-02-17T05:27:54.948Z,58.52
2018-02-17T05:30:24.861Z,58.42
2018-02-17T05:32:57.829Z,58.02
2018-02-17T05:35:31.297Z,57.80
2018-02-17T05:37:58.949Z,57.50
2018-02-17T05:43:26.470Z,57.23
2018-02-17T05:45:58.118Z,57.10
2018-02-17T05:48:27.362Z,56.69
2018-02-17T05:50:54.983Z,56.41
2018-02-17T05:53:22.522Z,56.62
2018-02-17T05:55:50.102Z,56.39
2018-02-17T05:58:17.735Z,55.92
2018-02-17T06:00:45.387Z,55.20
2018-02-17T06:03:12.978Z,55.25
2018-02-17T06:05:40.569Z,55.24
2018-02-17T06:08:08.673Z,54.47
2018-02-17T06:10:36.263Z,52.92
2018-02-17T06:13:03.871Z,52.12
2018-02-17T06:15:31.414Z,51.72
2018-02-17T06:17:58.967Z,50.55
2018-02-17T06:20:26.555Z,51.64
2018-02-17T06:22:54.106Z,54.87
2018-02-17T06:25:21.690Z,53.72
2018-02-17T06:27:50.345Z,52.37
2018-02-17T06:30:17.938Z,51.79
2018-02-17T06:32:46.444Z,50.57
2018-02-17T06:35:14.047Z,49.50
2018-02-17T06:37:41.594Z,48.80
2018-02-17T06:40:09.152Z,48.25
2018-02-17T06:42:36.759Z,49.07
2018-02-17T06:45:04.307Z,50.36
2018-02-17T06:47:31.859Z,50.90
2018-02-17T06:49:59.512Z,52.77
2018-02-17T06:52:27.048Z,54.38
2018-02-17T06:54:54.604Z,53.11
2018-02-17T06:57:22.213Z,53.03
2018-02-17T06:59:49.827Z,53.11
2018-02-17T07:02:17.420Z,53.14
2018-02-17T07:04:45.010Z,53.90
2018-02-17T07:07:12.714Z,53.92
2018-02-17T07:09:40.370Z,53.74
2018-02-17T07:12:08.198Z,53.22
2018-02-17T07:14:35.978Z,52.45
2018-02-17T07:17:03.518Z,52.09
2018-02-17T07:19:31.080Z,51.36
2018-02-17T07:21:58.688Z,50.49
2018-02-17T07:24:26.847Z,51.19
2018-02-17T07:26:54.524Z,50.96
2018-02-17T07:29:22.102Z,49.64
2018-02-17T07:31:50.058Z,49.24
2018-02-17T07:34:17.652Z,49.54
2018-02-17T07:36:46.335Z,49.18
2018-02-17T07:39:13.898Z,50.15
2018-02-17T07:41:41.970Z,49.15
2018-02-17T07:44:09.525Z,48.83
2018-02-17T07:46:37.114Z,47.61
2018-02-17T07:49:04.725Z,48.17
2018-02-17T07:51:32.587Z,48.25
2018-02-17T07:54:00.108Z,48.40
2018-02-17T07:56:27.701Z,48.13
2018-02-17T07:58:55.246Z,48.20
2018-02-17T08:01:22.826Z,47.86
2018-02-17T08:03:50.366Z,47.22
2018-02-17T08:06:17.976Z,46.97
2018-02-17T08:08:45.563Z,46.72
2018-02-17T08:11:13.163Z,47.03
2018-02-17T08:13:40.703Z,46.46
2018-02-17T08:16:08.574Z,46.89
2018-02-17T08:18:36.172Z,46.85
2018-02-17T08:21:03.719Z,46.63
2018-02-17T08:23:31.305Z,46.58
2018-02-17T08:25:58.895Z,46.73
2018-02-17T08:28:26.592Z,46.62
2018-02-17T08:30:54.239Z,46.43
2018-02-17T08:33:21.804Z,46.25
2018-02-17T08:35:49.391Z,45.87
2018-02-17T08:38:16.976Z,45.55
2018-02-17T08:40:45.357Z,45.21
2018-02-17T08:43:12.939Z,45.37
2018-02-17T08:45:40.523Z,45.55
2018-02-17T08:48:08.387Z,45.70
2018-02-17T08:50:35.938Z,45.23
2018-02-17T08:53:03.911Z,44.53
2018-02-17T08:55:31.468Z,44.89
2018-02-17T08:57:59.042Z,44.90
2018-02-17T09:00:26.817Z,44.67
2018-02-17T09:02:54.826Z,45.04
2018-02-17T09:05:22.449Z,44.90
2018-02-17T09:07:50.363Z,44.75
2018-02-17T09:10:18.014Z,44.96
2018-02-17T09:12:45.585Z,44.67
2018-02-17T09:15:13.130Z,44.79
2018-02-17T09:17:40.723Z,43.60
2018-02-17T09:20:08.870Z,44.55
2018-02-17T09:22:37.887Z,44.70
2018-02-17T09:25:05.474Z,44.62
2018-02-17T09:27:33.065Z,45.87
2018-02-17T09:30:00.665Z,46.39
2018-02-17T09:32:28.307Z,46.19
2018-02-17T09:34:55.896Z,45.31
2018-02-17T09:37:23.450Z,45.33
2018-02-17T09:39:51.041Z,45.75
2018-02-17T09:42:18.586Z,46.21
2018-02-17T09:44:46.179Z,45.86
2018-02-17T09:47:13.978Z,45.32
2018-02-17T09:49:41.560Z,45.54
2018-02-17T09:52:09.199Z,45.13
2018-02-17T09:54:36.742Z,44.62
2018-02-17T09:57:04.724Z,45.20
2018-02-17T09:59:32.311Z,44.91
2018-02-17T10:01:59.916Z,44.69
2018-02-17T10:04:27.508Z,45.36
2018-02-17T10:06:55.056Z,45.89
2018-02-17T10:09:22.639Z,45.21
2018-02-17T10:11:50.184Z,45.01
2018-02-17T10:14:17.791Z,44.83
2018-02-17T10:16:45.353Z,45.49
2018-02-17T10:19:12.912Z,45.06
2018-02-17T10:21:40.503Z,44.92
2018-02-17T10:24:08.096Z,44.59
2018-02-17T10:26:36.359Z,44.63
2018-02-17T10:29:04.178Z,44.64
2018-02-17T10:31:31.775Z,44.55
2018-02-17T10:33:59.805Z,44.56
2018-02-17T10:36:27.401Z,44.52
2018-02-17T10:38:54.984Z,44.43
2018-02-17T10:41:22.530Z,44.43
2018-02-17T10:43:50.122Z,44.40
2018-02-17T10:46:17.706Z,44.46
2018-02-17T10:48:45.931Z,44.72
2018-02-17T10:51:13.470Z,44.83
2018-02-17T10:53:41.071Z,44.96
2018-02-17T10:56:08.631Z,45.10
2018-02-17T10:58:36.226Z,45.09
2018-02-17T11:01:03.831Z,45.17
2018-02-17T11:03:31.419Z,44.98
2018-02-17T11:05:59.667Z,44.95
2018-02-17T11:08:27.267Z,45.07
2018-02-17T11:10:54.849Z,45.15
2018-02-17T11:13:22.422Z,45.07
2018-02-17T11:15:50.851Z,45.09
2018-02-17T11:18:18.445Z,45.20
2018-02-17T11:20:46.433Z,45.44
2018-02-17T11:23:14.494Z,45.55
2018-02-17T11:25:42.034Z,45.79
2018-02-17T11:28:09.588Z,45.80
2018-02-17T11:30:37.184Z,45.92
2018-02-17T11:33:04.735Z,46.06
2018-02-17T11:35:32.325Z,46.11
2018-02-17T11:37:59.872Z,46.26
2018-02-17T11:40:27.467Z,46.32
2018-02-17T11:42:55.010Z,46.29
2018-02-17T11:45:22.679Z,46.22
2018-02-17T11:47:50.502Z,46.32
2018-02-17T11:50:18.366Z,46.48
2018-02-17T11:52:46.433Z,46.50
2018-02-17T11:55:14.340Z,46.44
2018-02-17T11:57:42.165Z,46.46
2018-02-17T12:00:09.755Z,46.60
2018-02-17T12:02:38.154Z,46.47
2018-02-17T12:05:05.758Z,46.68
2018-02-17T12:07:34.287Z,46.70
2018-02-17T12:10:02.346Z,46.68
2018-02-17T12:12:29.938Z,46.80
2018-02-17T12:14:57.525Z,46.86
2018-02-17T12:17:25.132Z,46.75
2018-02-17T12:19:52.956Z,46.66
2018-02-17T12:22:20.668Z,46.58
2018-02-17T12:24:48.210Z,46.45
2018-02-17T12:27:15.813Z,46.39
2018-02-17T12:29:43.437Z,46.35
2018-02-17T12:32:10.978Z,46.40
2018-02-17T12:34:38.925Z,46.52
2018-02-17T12:37:06.949Z,46.54
2018-02-17T12:39:35.227Z,46.34
2018-02-17T12:42:02.816Z,46.16
2018-02-17T12:44:30.548Z,45.68
2018-02-17T12:46:58.138Z,45.33
2018-02-17T12:49:25.732Z,45.06
2018-02-17T12:51:53.310Z,44.71
2018-02-17T12:54:20.862Z,44.35
2018-02-17T12:56:48.420Z,43.97
2018-02-17T12:59:15.972Z,43.74
2018-02-17T13:01:43.723Z,43.49
2018-02-17T13:04:11.328Z,43.23
2018-02-17T13:06:38.923Z,43.08
2018-02-17T13:09:06.626Z,42.85
2018-02-17T13:11:34.244Z,42.86
2018-02-17T13:14:02.673Z,42.90
2018-02-17T13:16:30.251Z,42.93
2018-02-17T13:18:57.822Z,43.09
2018-02-17T13:21:26.098Z,43.36
2018-02-17T13:23:53.699Z,43.66
2018-02-17T13:26:21.283Z,43.92
2018-02-17T13:28:48.839Z,44.07
2018-02-17T13:31:16.426Z,44.57
2018-02-17T13:33:43.981Z,44.99
2018-02-17T13:36:12.284Z,45.32
2018-02-17T13:38:40.260Z,45.56
2018-02-17T13:41:07.810Z,45.82
2018-02-17T13:43:35.417Z,46.06
2018-02-17T13:46:02.967Z,46.39
2018-02-17T13:48:30.714Z,46.58
2018-02-17T13:50:58.882Z,46.75
2018-02-17T13:53:26.474Z,46.93
2018-02-17T13:55:54.031Z,47.03
2018-02-17T13:58:22.138Z,47.14
2018-02-17T14:00:49.742Z,47.31
2018-02-17T14:03:17.361Z,47.33
2018-02-17T14:05:45.487Z,47.39
2018-02-17T14:08:13.051Z,47.48
2018-02-17T14:10:40.690Z,47.60
2018-02-17T14:13:08.306Z,47.69
2018-02-17T14:15:35.845Z,47.71
2018-02-17T14:18:03.453Z,47.64
2018-02-17T14:20:31.209Z,47.64
2018-02-17T14:22:58.766Z,47.85
2018-02-17T14:25:26.354Z,47.96
2018-02-17T14:27:54.450Z,48.00
2018-02-17T14:30:22.000Z,48.00
2018-02-17T14:32:50.068Z,48.07
2018-02-17T14:35:17.616Z,48.13
2018-02-17T14:37:45.180Z,48.15
2018-02-17T14:40:13.207Z,48.19
2018-02-17T14:42:40.769Z,48.19
2018-02-17T14:45:08.366Z,48.21
2018-02-17T14:47:35.924Z,48.18
2018-02-17T14:50:03.742Z,48.15
2018-02-17T14:52:31.320Z,48.18
2018-02-17T14:54:58.958Z,48.22
2018-02-17T14:57:26.813Z,48.25
2018-02-17T14:59:54.483Z,48.26
2018-02-17T15:02:23.271Z,48.29
2018-02-17T15:04:51.087Z,48.42
2018-02-17T15:07:20.714Z,48.43
2018-02-17T15:09:48.262Z,48.47
2018-02-17T15:12:15.859Z,48.51
2018-02-17T15:14:44.112Z,48.55
2018-02-17T15:17:13.069Z,48.56
2018-02-17T15:19:41.052Z,48.58
2018-02-17T15:22:08.605Z,48.65
2018-02-17T15:24:37.007Z,48.64
2018-02-17T15:27:05.361Z,48.70
2018-02-17T15:29:33.342Z,48.77
2018-02-17T15:32:00.896Z,48.83
2018-02-17T15:34:28.960Z,48.97
2018-02-17T15:36:57.075Z,49.09
2018-02-17T15:39:24.645Z,49.61
2018-02-17T15:41:52.656Z,49.64
2018-02-17T15:44:20.200Z,50.16
2018-02-17T15:46:47.791Z,51.22
2018-02-17T15:49:16.144Z,51.97
2018-02-17T15:51:44.209Z,52.71
2018-02-17T15:54:14.123Z,53.08
2018-02-17T15:56:43.151Z,53.29
2018-02-17T15:59:10.788Z,53.26
2018-02-17T16:01:38.521Z,53.57
2018-02-17T16:04:06.840Z,53.53
2018-02-17T16:06:34.538Z,53.36
2018-02-17T16:09:02.122Z,53.14
2018-02-17T16:11:30.845Z,53.47
2018-02-17T16:13:58.407Z,54.40
2018-02-17T16:16:25.994Z,54.99
2018-02-17T16:18:53.690Z,55.72
2018-02-17T16:21:21.506Z,56.85
2018-02-17T16:23:49.486Z,56.81
2018-02-17T16:26:17.048Z,56.68
2018-02-17T16:28:44.653Z,56.38
2018-02-17T16:31:13.695Z,56.22
2018-02-17T16:33:41.294Z,57.32
2018-02-17T16:36:09.617Z,57.86
2018-02-17T16:38:37.741Z,58.45
2018-02-17T16:41:05.351Z,58.57
2018-02-17T16:43:32.939Z,58.78
2018-02-17T16:46:00.518Z,58.43
2018-02-17T16:48:28.874Z,58.27
2018-02-17T16:50:56.423Z,59.21
2018-02-17T16:53:24.019Z,59.75
2018-02-17T16:55:51.613Z,59.93
2018-02-17T16:58:20.097Z,59.73
2018-02-17T17:00:48.069Z,59.75
2018-02-17T17:03:16.299Z,59.20
2018-02-17T17:05:44.831Z,58.38
2018-02-17T17:08:12.604Z,57.70
2018-02-17T17:10:40.170Z,57.25
2018-02-17T17:13:08.124Z,57.22
2018-02-17T17:15:36.344Z,57.22
2018-02-17T17:18:03.934Z,56.95
2018-02-17T17:20:31.907Z,56.55
2018-02-17T17:23:00.035Z,56.42
2018-02-17T17:25:29.125Z,56.06
2018-02-17T17:27:58.677Z,56.14
2018-02-17T17:30:27.550Z,55.52
2018-02-17T17:32:55.427Z,55.61
2018-02-17T17:35:23.892Z,55.34
2018-02-17T17:37:53.128Z,55.15
2018-02-17T17:40:21.513Z,55.36
2018-02-17T17:42:49.094Z,56.63
2018-02-17T17:45:16.713Z,57.97
2018-02-17T17:47:46.052Z,59.52
2018-02-17T17:50:14.155Z,59.63
2018-02-17T17:52:41.717Z,58.94
2018-02-17T17:55:10.180Z,58.22
2018-02-17T17:57:39.146Z,57.37
2018-02-17T18:00:07.365Z,58.57
2018-02-17T18:02:35.604Z,59.00
2018-02-17T18:05:04.011Z,58.02
2018-02-17T18:07:32.219Z,57.86
2018-02-17T18:10:00.134Z,57.25
2018-02-17T18:12:27.689Z,57.10
2018-02-17T18:14:55.635Z,57.06
2018-02-17T18:17:24.561Z,56.91
2018-02-17T18:19:52.106Z,56.68
2018-02-17T18:22:20.199Z,56.76
2018-02-17T18:24:49.511Z,56.46
2018-02-17T18:27:17.811Z,56.54
2018-02-17T18:29:45.403Z,56.36
2018-02-17T18:32:13.288Z,58.88
2018-02-17T18:34:40.855Z,60.25
2018-02-17T18:37:08.939Z,60.24
2018-02-17T18:39:37.011Z,59.28
2018-02-17T18:42:04.572Z,59.52
2018-02-17T18:44:33.237Z,59.26
2018-02-17T18:47:01.768Z,60.50
2018-02-17T18:49:30.312Z,62.14
2018-02-17T18:51:59.381Z,62.03
2018-02-17T18:54:27.700Z,60.89
2018-02-17T18:56:55.247Z,60.88
2018-02-17T18:59:24.589Z,60.03
2018-02-17T19:01:52.709Z,59.66
2018-02-17T19:04:21.474Z,59.10
2018-02-17T19:06:49.169Z,58.84
2018-02-17T19:09:17.247Z,58.46
2018-02-17T19:11:45.188Z,58.25
2018-02-17T19:14:12.796Z,58.31
2018-02-17T19:16:40.397Z,58.05
2018-02-17T19:19:07.999Z,58.34
2018-02-17T19:21:35.542Z,58.50
2018-02-17T19:24:03.878Z,57.54
2018-02-17T19:26:31.433Z,57.37
2018-02-17T19:28:58.992Z,58.15
2018-02-17T19:31:26.583Z,59.78
2018-02-17T19:33:55.132Z,60.78
2018-02-17T19:36:23.044Z,59.79
2018-02-17T19:38:50.663Z,58.59
2018-02-17T19:41:18.240Z,57.85
2018-02-17T19:43:46.703Z,57.31
2018-02-17T19:46:14.296Z,57.42
2018-02-17T19:48:43.498Z,57.42
2018-02-17T19:51:11.640Z,58.10
2018-02-17T19:53:39.238Z,59.74
2018-02-17T19:56:08.897Z,60.69
2018-02-17T19:58:37.164Z,60.01
2018-02-17T20:01:04.735Z,59.14
2018-02-17T20:03:32.591Z,58.13
2018-02-17T20:06:00.152Z,57.65
2018-02-17T20:08:28.375Z,57.49
2018-02-17T20:10:56.899Z,57.18
2018-02-17T20:13:25.342Z,57.25
2018-02-17T20:15:55.320Z,59.12
2018-02-17T20:18:22.917Z,61.00
2018-02-17T20:20:52.482Z,60.53
2018-02-17T20:23:20.440Z,59.30
2018-02-17T20:25:49.055Z,58.66
2018-02-17T20:28:17.231Z,58.41
2018-02-17T20:30:46.470Z,57.75
2018-02-17T20:33:14.024Z,57.61
2018-02-17T20:35:41.681Z,57.56
2018-02-17T20:38:09.727Z,57.31
2018-02-17T20:40:37.291Z,59.79
2018-02-17T20:43:05.839Z,60.53
2018-02-17T20:45:33.480Z,60.61
2018-02-17T20:48:01.355Z,61.63
2018-02-17T20:50:28.908Z,60.79
2018-02-17T20:52:57.219Z,61.00
2018-02-17T20:55:25.348Z,60.02
2018-02-17T20:57:53.246Z,59.18
2018-02-17T21:00:22.175Z,61.40
2018-02-17T21:02:50.337Z,62.64
2018-02-17T21:05:18.460Z,65.30
2018-02-17T21:07:46.435Z,65.10
2018-02-17T21:10:14.787Z,64.57
2018-02-17T21:12:42.854Z,67.81
2018-02-17T21:15:12.007Z,69.58
2018-02-17T21:17:40.148Z,69.37
2018-02-17T21:20:08.346Z,70.55
2018-02-17T21:22:35.978Z,71.88
2018-02-17T21:25:03.970Z,74.52
2018-02-17T21:27:31.545Z,74.77
2018-02-17T21:29:59.396Z,73.83
2018-02-17T21:32:26.986Z,74.45
2018-02-17T21:34:54.569Z,73.88
2018-02-17T21:37:22.755Z,72.59
2018-02-17T21:39:50.468Z,70.61
2018-02-17T21:42:18.059Z,68.04
2018-02-17T21:44:46.042Z,66.17
2018-02-17T21:47:15.065Z,64.84
2018-02-17T21:49:42.664Z,63.41
2018-02-17T21:52:10.431Z,62.36
2018-02-17T21:54:38.093Z,61.61
2018-02-17T21:57:05.735Z,60.96
2018-02-17T21:59:33.405Z,60.37
2018-02-17T22:02:02.230Z,60.75
2018-02-17T22:04:29.814Z,60.45
2018-02-17T22:06:57.358Z,59.82
2018-02-17T22:09:25.047Z,59.79
2018-02-17T22:11:53.450Z,62.31
2018-02-17T22:14:21.092Z,61.85
2018-02-17T22:16:48.702Z,60.57
2018-02-17T22:19:16.435Z,60.30
2018-02-17T22:21:44.251Z,60.08
2018-02-17T22:24:12.051Z,59.74
2018-02-17T22:26:40.687Z,59.10
2018-02-17T22:29:08.235Z,58.73
2018-02-17T22:31:35.840Z,58.57
2018-02-17T22:34:03.389Z,60.29
2018-02-17T22:36:30.952Z,63.17
2018-02-17T22:38:58.556Z,63.81
2018-02-17T22:41:26.093Z,64.22
2018-02-17T22:43:53.692Z,64.47
2018-02-17T22:46:21.253Z,65.76
2018-02-17T22:48:48.806Z,67.23
2018-02-17T22:51:16.401Z,68.25
2018-02-17T22:53:43.946Z,68.36
2018-02-17T22:56:11.543Z,69.14
2018-02-17T22:58:39.090Z,69.47
2018-02-17T23:01:06.693Z,69.22
2018-02-17T23:03:34.246Z,70.75
2018-02-17T23:06:01.831Z,70.37
2018-02-17T23:08:29.426Z,68.96
2018-02-17T23:10:57.917Z,68.71
2018-02-17T23:13:25.516Z,68.52
2018-02-17T23:15:53.072Z,69.24
2018-02-17T23:18:20.655Z,69.92
2018-02-17T23:20:48.207Z,70.11
2018-02-17T23:23:15.798Z,70.01
2018-02-17T23:25:43.389Z,69.88
2018-02-17T23:28:10.955Z,68.59
2018-02-17T23:30:38.565Z,67.06
2018-02-17T23:33:06.113Z,65.35
2018-02-17T23:35:33.662Z,63.42
2018-02-17T23:38:01.255Z,62.57
2018-02-17T23:40:28.802Z,62.00
2018-02-17T23:42:56.874Z,61.60
2018-02-17T23:45:24.474Z,61.61
2018-02-17T23:47:52.089Z,61.52
2018-02-17T23:50:19.651Z,61.39
2018-02-17T23:52:47.247Z,61.17
2018-02-17T23:55:15.589Z,61.06
2018-02-17T23:57:43.186Z,60.72
